Kendall, Washington
Current Conditions -  °F | °C
As of 6:00 AM on Thursday 23 Oct 2014 (Local Time) from CYXX Reporting Station
Rain Showers Rain Showers  
Wind Chill: 10°   Ceiling: 3000
Heat Index: 10°   Visibility: 10mi
Dew Point: 10°   Wind: 2mph
Humidity: 100%   Direction: 170°S
Pressure: 29.68"   Gusts: NA
Location:  48.8512°N, 121.903°W
Report Text: CYXX 231300Z 17002KT 10SM VCSH BKN030 OVC050 10/10 A2968 RMK SC5SC3 SLP052
Loading
Personal Weather Stations






























Interactive Weather Map
Tropical Storm Tracking
New forecast layout! Learn more

10-Day Weather Forecast

Advertisements
Track Severe Weather on mobile